createdAt,value
2023-05-20T00:04:03.492Z,76971.84
2023-05-20T00:11:37.632Z,76977.97
2023-05-20T00:19:12.935Z,76973.88
2023-05-20T00:26:46.720Z,76973.88
2023-05-20T00:34:22.010Z,76975.91
2023-05-20T00:41:56.916Z,76998.38
2023-05-20T00:49:32.242Z,77000.41
2023-05-20T00:57:08.062Z,76998.38
2023-05-20T01:04:47.126Z,77008.59
2023-05-20T01:12:24.964Z,77006.53
2023-05-20T01:20:01.508Z,77026.97
2023-05-20T01:27:37.138Z,77031.03
2023-05-20T01:35:11.555Z,77037.16
2023-05-20T01:42:53.057Z,77024.91
2023-05-20T01:50:27.619Z,77045.31
2023-05-20T01:58:03.014Z,77069.81
2023-05-20T02:05:37.299Z,77065.75
2023-05-20T02:13:13.009Z,77067.78
2023-05-20T02:20:46.941Z,77067.78
2023-05-20T02:28:22.235Z,77090.25
2023-05-20T02:35:56.176Z,77094.31
2023-05-20T02:43:32.286Z,77092.28
2023-05-20T02:51:06.742Z,77094.31
2023-05-20T02:58:42.564Z,77078.00
2023-05-20T03:06:16.491Z,77088.19
2023-05-20T03:13:51.801Z,77092.28
2023-05-20T03:21:26.794Z,77092.28
2023-05-20T03:29:01.997Z,77080.03
2023-05-20T03:36:35.945Z,77086.16
2023-05-20T03:44:11.207Z,77084.13
2023-05-20T03:51:45.105Z,77071.88
2023-05-20T03:59:22.325Z,77073.91
2023-05-20T04:06:56.915Z,77078.00
2023-05-20T04:14:35.060Z,77059.63
2023-05-20T04:22:08.956Z,77053.50
2023-05-20T04:29:46.008Z,77065.75
2023-05-20T04:37:20.007Z,77051.44
2023-05-20T04:44:55.187Z,77049.41
2023-05-20T04:52:29.276Z,77035.13
2023-05-20T05:07:55.321Z,77016.75
2023-05-20T05:15:30.926Z,77020.84
2023-05-20T05:23:04.808Z,77024.91
2023-05-20T05:30:40.488Z,77010.63
2023-05-20T05:38:14.678Z,77006.53
2023-05-20T05:45:50.237Z,77000.41
2023-05-20T05:53:30.058Z,76996.34
2023-05-20T06:01:05.439Z,76990.22
2023-05-20T06:08:39.375Z,76961.63
2023-05-20T06:16:14.656Z,76945.28
2023-05-20T06:23:48.508Z,76933.03
2023-05-20T06:31:24.380Z,76943.25
2023-05-20T06:38:58.771Z,76937.13
2023-05-20T06:46:34.233Z,76922.84
2023-05-20T06:54:08.126Z,76916.72
2023-05-20T07:01:43.384Z,76922.84
2023-05-20T07:09:17.490Z,76918.75
2023-05-20T07:16:52.840Z,76888.13
2023-05-20T07:24:26.914Z,76863.63
2023-05-20T07:32:02.410Z,76853.44
2023-05-20T07:39:36.346Z,76835.06
2023-05-20T07:47:11.589Z,76804.44
2023-05-20T07:54:45.735Z,76771.78
2023-05-20T08:02:21.470Z,76755.44
2023-05-20T08:09:55.484Z,76730.94
2023-05-20T08:17:30.861Z,76704.41
2023-05-20T08:25:05.585Z,76679.91
2023-05-20T08:32:40.777Z,76651.34
2023-05-20T08:40:15.285Z,76622.75
2023-05-20T08:47:50.798Z,76594.19
2023-05-20T08:55:27.788Z,76594.19
2023-05-20T09:03:04.269Z,76600.31
2023-05-20T09:10:38.987Z,76602.34
2023-05-20T09:18:14.558Z,76592.13
2023-05-20T09:25:50.946Z,76575.81
2023-05-20T09:33:29.872Z,76571.72
2023-05-20T09:41:14.178Z,76567.66
2023-05-20T09:48:48.114Z,76557.44
2023-05-20T09:56:26.651Z,76537.03
2023-05-20T10:04:01.889Z,76500.28
2023-05-20T10:11:46.562Z,76486.00
2023-05-20T10:19:30.125Z,76465.59
2023-05-20T10:27:09.400Z,76434.97
2023-05-20T10:34:48.458Z,76426.81
2023-05-20T10:42:31.016Z,76404.34
2023-05-20T10:50:06.195Z,76398.22
2023-05-20T10:57:42.567Z,76375.78
2023-05-20T11:05:18.972Z,76337.00
2023-05-20T11:12:54.526Z,76318.63
2023-05-20T11:20:28.743Z,76285.97
2023-05-20T11:28:04.152Z,76210.44
2023-05-20T11:35:37.991Z,76181.88
2023-05-20T11:43:14.541Z,76165.56
2023-05-20T11:50:49.522Z,76106.38
2023-05-20T11:58:25.402Z,76073.72
2023-05-20T12:06:02.152Z,76067.59
2023-05-20T12:13:37.595Z,76061.47
2023-05-20T12:21:11.500Z,76049.22
2023-05-20T12:28:46.807Z,76036.97
2023-05-20T12:36:20.641Z,76000.22
2023-05-20T12:43:55.992Z,75943.09
2023-05-20T12:51:29.921Z,75955.34
2023-05-20T12:59:05.169Z,75941.06
2023-05-20T13:06:39.018Z,75943.09
2023-05-20T13:14:15.750Z,75918.59
2023-05-20T13:21:52.167Z,75900.22
2023-05-20T13:29:27.340Z,75892.06
2023-05-20T13:37:01.122Z,75857.38
2023-05-20T13:44:36.562Z,75832.88
2023-05-20T13:52:10.631Z,75806.34
2023-05-20T13:59:46.068Z,75806.34
2023-05-20T14:07:20.301Z,75716.56
2023-05-20T14:14:56.140Z,75734.94
2023-05-20T14:22:30.286Z,75690.03
2023-05-20T14:30:07.075Z,75669.63
2023-05-20T14:37:41.225Z,75645.13
2023-05-20T14:53:07.992Z,75643.09
2023-05-20T15:00:43.524Z,75581.88
2023-05-20T15:08:17.589Z,75559.44
2023-05-20T15:15:52.938Z,75600.25
2023-05-20T15:23:26.784Z,75630.84
2023-05-20T15:31:02.290Z,75504.34
2023-05-20T15:38:36.096Z,75481.88
2023-05-20T15:46:12.586Z,75543.09
2023-05-20T15:53:46.454Z,75575.75
2023-05-20T16:01:23.265Z,75555.34
2023-05-20T16:08:57.260Z,75555.34
2023-05-20T16:16:35.103Z,75526.78
2023-05-20T16:24:09.790Z,75534.94
2023-05-20T16:31:47.162Z,75481.88
2023-05-20T16:39:21.387Z,75520.66
2023-05-20T16:46:56.616Z,75504.34
2023-05-20T16:54:30.441Z,75506.38
2023-05-20T17:02:05.982Z,75539.03
2023-05-20T17:09:39.874Z,75547.19
2023-05-20T17:17:15.348Z,75559.44
2023-05-20T17:24:49.261Z,75547.19
2023-05-20T17:32:24.579Z,75571.69
2023-05-20T17:39:58.483Z,75596.16
2023-05-20T17:47:33.792Z,75602.28
2023-05-20T17:55:09.610Z,75614.53
2023-05-20T18:02:47.990Z,75630.84
2023-05-20T18:10:21.979Z,75634.94
2023-05-20T18:17:57.162Z,75647.19
2023-05-20T18:25:31.050Z,75657.38
2023-05-20T18:33:07.734Z,75665.53
2023-05-20T18:40:41.654Z,75679.84
2023-05-20T18:48:25.664Z,75677.78
2023-05-20T18:56:03.275Z,75700.25
2023-05-20T19:03:38.546Z,75706.34
2023-05-20T19:11:12.869Z,75720.66
2023-05-20T19:18:48.760Z,75726.78
2023-05-20T19:26:22.780Z,75734.94
2023-05-20T19:33:58.597Z,75745.13
2023-05-20T19:41:32.805Z,75751.25
2023-05-20T19:49:08.198Z,75763.50
2023-05-20T19:56:42.059Z,75771.66
2023-05-20T20:04:18.693Z,75783.91
2023-05-20T20:11:52.775Z,75790.03
2023-05-20T20:19:28.575Z,75785.94
2023-05-20T20:27:02.640Z,75804.31
2023-05-20T20:34:37.978Z,75816.56
2023-05-20T20:42:11.892Z,75826.75
2023-05-20T20:49:49.750Z,75830.84
2023-05-20T20:57:23.944Z,75853.28
2023-05-20T21:05:02.034Z,75861.47
2023-05-20T21:12:36.002Z,75865.53
2023-05-20T21:20:12.886Z,75869.63
2023-05-20T21:27:47.087Z,75879.81
2023-05-20T21:35:22.262Z,75873.69
2023-05-20T21:42:56.831Z,75881.88
2023-05-20T21:50:32.319Z,75877.78
2023-05-20T21:58:06.848Z,75881.88
2023-05-20T22:05:46.233Z,75894.13
2023-05-20T22:13:20.986Z,75894.13
2023-05-20T22:20:56.695Z,75904.31
2023-05-20T22:28:30.766Z,75910.44
2023-05-20T22:36:06.758Z,75920.63
2023-05-20T22:43:40.768Z,75932.88
2023-05-20T22:51:16.634Z,75936.97
2023-05-20T22:58:50.680Z,75943.09
2023-05-20T23:06:26.965Z,75945.13
2023-05-20T23:14:00.969Z,75951.25
2023-05-20T23:21:37.501Z,75949.22
2023-05-20T23:29:11.781Z,75955.34
2023-05-20T23:36:47.260Z,75955.34
2023-05-20T23:44:21.335Z,75969.63
2023-05-20T23:51:56.715Z,75983.91
2023-05-20T23:59:30.974Z,75990.03
